sensor_id;sensor_type;location;lat;lon;timestamp;P1;durP1;ratioP1;P2;durP2;ratioP2
8353;SDS011;4656;48.090;11.498;2023-03-01T00:00:01;21.20;;;14.75;;
8353;SDS011;4656;48.090;11.498;2023-03-01T00:02:04;21.40;;;14.50;;
8353;SDS011;4656;48.090;11.498;2023-03-01T00:04:06;20.88;;;14.50;;
8353;SDS011;4656;48.090;11.498;2023-03-01T00:06:08;22.33;;;14.95;;
8353;SDS011;4656;48.090;11.498;2023-03-01T00:08:11;23.77;;;14.75;;
8353;SDS011;4656;48.090;11.498;2023-03-01T00:10:14;22.55;;;15.70;;
8353;SDS011;4656;48.090;11.498;2023-03-01T00:12:17;22.05;;;15.02;;
8353;SDS011;4656;48.090;11.498;2023-03-01T00:14:19;21.20;;;14.67;;
8353;SDS011;4656;48.090;11.498;2023-03-01T00:16:22;29.17;;;18.05;;
8353;SDS011;4656;48.090;11.498;2023-03-01T00:18:24;22.45;;;15.23;;
8353;SDS011;4656;48.090;11.498;2023-03-01T00:20:26;22.17;;;14.88;;
8353;SDS011;4656;48.090;11.498;2023-03-01T00:22:29;20.98;;;14.25;;
8353;SDS011;4656;48.090;11.498;2023-03-01T00:24:31;24.63;;;15.18;;
8353;SDS011;4656;48.090;11.498;2023-03-01T00:26:34;23.60;;;14.52;;
8353;SDS011;4656;48.090;11.498;2023-03-01T00:28:37;23.50;;;15.23;;
8353;SDS011;4656;48.090;11.498;2023-03-01T00:30:39;26.23;;;14.95;;
8353;SDS011;4656;48.090;11.498;2023-03-01T00:32:41;21.25;;;15.02;;
8353;SDS011;4656;48.090;11.498;2023-03-01T00:34:43;22.55;;;15.48;;
8353;SDS011;4656;48.090;11.498;2023-03-01T00:36:54;22.95;;;14.80;;
8353;SDS011;4656;48.090;11.498;2023-03-01T00:39:07;20.90;;;15.05;;
8353;SDS011;4656;48.090;11.498;2023-03-01T00:41:10;23.10;;;15.65;;
8353;SDS011;4656;48.090;11.498;2023-03-01T00:43:13;27.35;;;15.98;;
8353;SDS011;4656;48.090;11.498;2023-03-01T00:45:16;19.90;;;14.23;;
8353;SDS011;4656;48.090;11.498;2023-03-01T00:47:18;21.38;;;14.57;;
8353;SDS011;4656;48.090;11.498;2023-03-01T00:49:20;21.30;;;14.93;;
8353;SDS011;4656;48.090;11.498;2023-03-01T00:51:25;22.55;;;14.80;;
8353;SDS011;4656;48.090;11.498;2023-03-01T00:53:28;24.75;;;15.30;;
8353;SDS011;4656;48.090;11.498;2023-03-01T00:55:30;23.30;;;15.20;;
8353;SDS011;4656;48.090;11.498;2023-03-01T00:57:32;22.48;;;15.02;;
8353;SDS011;4656;48.090;11.498;2023-03-01T00:59:36;23.92;;;15.60;;
8353;SDS011;4656;48.090;11.498;2023-03-01T01:01:38;22.00;;;14.50;;
8353;SDS011;4656;48.090;11.498;2023-03-01T01:03:40;21.55;;;14.82;;
8353;SDS011;4656;48.090;11.498;2023-03-01T01:05:42;21.05;;;14.32;;
8353;SDS011;4656;48.090;11.498;2023-03-01T01:07:45;21.65;;;15.25;;
8353;SDS011;4656;48.090;11.498;2023-03-01T01:09:47;22.05;;;15.10;;
8353;SDS011;4656;48.090;11.498;2023-03-01T01:11:49;23.65;;;14.73;;
8353;SDS011;4656;48.090;11.498;2023-03-01T01:13:52;19.88;;;13.75;;
8353;SDS011;4656;48.090;11.498;2023-03-01T01:15:56;23.52;;;14.65;;
8353;SDS011;4656;48.090;11.498;2023-03-01T01:18:02;24.70;;;15.10;;
8353;SDS011;4656;48.090;11.498;2023-03-01T01:20:04;20.88;;;14.75;;
8353;SDS011;4656;48.090;11.498;2023-03-01T01:22:07;21.67;;;15.02;;
8353;SDS011;4656;48.090;11.498;2023-03-01T01:24:09;22.17;;;15.25;;
8353;SDS011;4656;48.090;11.498;2023-03-01T01:26:13;23.23;;;15.30;;
8353;SDS011;4656;48.090;11.498;2023-03-01T01:28:16;22.95;;;14.85;;
8353;SDS011;4656;48.090;11.498;2023-03-01T01:30:18;21.05;;;14.70;;
8353;SDS011;4656;48.090;11.498;2023-03-01T01:32:22;20.85;;;14.98;;
8353;SDS011;4656;48.090;11.498;2023-03-01T01:34:24;22.48;;;15.05;;
8353;SDS011;4656;48.090;11.498;2023-03-01T01:36:26;21.83;;;14.30;;
8353;SDS011;4656;48.090;11.498;2023-03-01T01:38:28;21.90;;;15.07;;
8353;SDS011;4656;48.090;11.498;2023-03-01T01:40:31;24.03;;;15.23;;
8353;SDS011;4656;48.090;11.498;2023-03-01T01:42:33;21.63;;;15.00;;
8353;SDS011;4656;48.090;11.498;2023-03-01T01:44:35;21.27;;;14.45;;
8353;SDS011;4656;48.090;11.498;2023-03-01T01:46:37;22.38;;;14.63;;
8353;SDS011;4656;48.090;11.498;2023-03-01T01:48:42;22.52;;;14.65;;
8353;SDS011;4656;48.090;11.498;2023-03-01T01:50:45;22.23;;;15.27;;
8353;SDS011;4656;48.090;11.498;2023-03-01T01:52:49;21.92;;;15.35;;
8353;SDS011;4656;48.090;11.498;2023-03-01T01:54:53;19.77;;;13.88;;
8353;SDS011;4656;48.090;11.498;2023-03-01T01:56:57;21.98;;;14.48;;
8353;SDS011;4656;48.090;11.498;2023-03-01T01:59:01;21.63;;;15.25;;
8353;SDS011;4656;48.090;11.498;2023-03-01T02:01:04;22.52;;;15.50;;
8353;SDS011;4656;48.090;11.498;2023-03-01T02:03:08;21.92;;;15.13;;
8353;SDS011;4656;48.090;11.498;2023-03-01T02:05:14;21.85;;;14.20;;
8353;SDS011;4656;48.090;11.498;2023-03-01T02:07:20;21.25;;;15.10;;
8353;SDS011;4656;48.090;11.498;2023-03-01T02:09:23;22.73;;;14.95;;
8353;SDS011;4656;48.090;11.498;2023-03-01T02:11:25;23.35;;;14.65;;
8353;SDS011;4656;48.090;11.498;2023-03-01T02:13:29;22.33;;;15.20;;
8353;SDS011;4656;48.090;11.498;2023-03-01T02:15:31;22.52;;;14.98;;
8353;SDS011;4656;48.090;11.498;2023-03-01T02:17:34;21.25;;;14.32;;
8353;SDS011;4656;48.090;11.498;2023-03-01T02:19:41;24.83;;;15.73;;
8353;SDS011;4656;48.090;11.498;2023-03-01T02:21:49;21.65;;;15.23;;
8353;SDS011;4656;48.090;11.498;2023-03-01T02:23:54;21.17;;;14.43;;
8353;SDS011;4656;48.090;11.498;2023-03-01T02:25:59;21.50;;;15.10;;
8353;SDS011;4656;48.090;11.498;2023-03-01T02:28:05;19.52;;;13.60;;
8353;SDS011;4656;48.090;11.498;2023-03-01T02:30:12;21.65;;;15.18;;
8353;SDS011;4656;48.090;11.498;2023-03-01T02:32:14;22.13;;;15.00;;
8353;SDS011;4656;48.090;11.498;2023-03-01T02:34:16;20.60;;;14.18;;
8353;SDS011;4656;48.090;11.498;2023-03-01T02:36:20;22.42;;;15.10;;
8353;SDS011;4656;48.090;11.498;2023-03-01T02:38:23;23.92;;;14.63;;
8353;SDS011;4656;48.090;11.498;2023-03-01T02:40:25;21.90;;;14.90;;
8353;SDS011;4656;48.090;11.498;2023-03-01T02:42:31;20.38;;;14.40;;
8353;SDS011;4656;48.090;11.498;2023-03-01T02:44:35;24.10;;;14.70;;
8353;SDS011;4656;48.090;11.498;2023-03-01T02:46:43;23.05;;;14.88;;
8353;SDS011;4656;48.090;11.498;2023-03-01T02:48:45;21.75;;;14.75;;
8353;SDS011;4656;48.090;11.498;2023-03-01T02:51:01;24.17;;;14.93;;
8353;SDS011;4656;48.090;11.498;2023-03-01T02:53:04;21.30;;;14.95;;
8353;SDS011;4656;48.090;11.498;2023-03-01T02:55:10;21.20;;;14.75;;
8353;SDS011;4656;48.090;11.498;2023-03-01T02:57:12;23.63;;;15.65;;
8353;SDS011;4656;48.090;11.498;2023-03-01T02:59:16;21.60;;;15.00;;
8353;SDS011;4656;48.090;11.498;2023-03-01T03:01:19;21.67;;;15.15;;
8353;SDS011;4656;48.090;11.498;2023-03-01T03:03:23;23.42;;;16.25;;
8353;SDS011;4656;48.090;11.498;2023-03-01T03:05:26;21.30;;;14.80;;
8353;SDS011;4656;48.090;11.498;2023-03-01T03:07:28;21.20;;;14.93;;
8353;SDS011;4656;48.090;11.498;2023-03-01T03:09:30;20.27;;;14.68;;
8353;SDS011;4656;48.090;11.498;2023-03-01T03:11:32;21.48;;;15.35;;
8353;SDS011;4656;48.090;11.498;2023-03-01T03:13:36;23.55;;;15.05;;
8353;SDS011;4656;48.090;11.498;2023-03-01T03:15:47;22.73;;;14.40;;
8353;SDS011;4656;48.090;11.498;2023-03-01T03:17:51;20.50;;;14.55;;
8353;SDS011;4656;48.090;11.498;2023-03-01T03:19:55;21.65;;;15.30;;
8353;SDS011;4656;48.090;11.498;2023-03-01T03:21:57;23.30;;;14.70;;
8353;SDS011;4656;48.090;11.498;2023-03-01T03:23:59;21.67;;;14.70;;
8353;SDS011;4656;48.090;11.498;2023-03-01T03:26:02;20.55;;;14.27;;
8353;SDS011;4656;48.090;11.498;2023-03-01T03:28:05;22.10;;;15.15;;
8353;SDS011;4656;48.090;11.498;2023-03-01T03:30:11;22.00;;;15.23;;
8353;SDS011;4656;48.090;11.498;2023-03-01T03:32:13;22.17;;;15.27;;
8353;SDS011;4656;48.090;11.498;2023-03-01T03:34:16;24.80;;;15.05;;
8353;SDS011;4656;48.090;11.498;2023-03-01T03:36:20;20.73;;;14.48;;
8353;SDS011;4656;48.090;11.498;2023-03-01T03:38:23;22.42;;;14.95;;
8353;SDS011;4656;48.090;11.498;2023-03-01T03:40:25;23.45;;;14.98;;
8353;SDS011;4656;48.090;11.498;2023-03-01T03:42:27;21.52;;;15.02;;
8353;SDS011;4656;48.090;11.498;2023-03-01T03:44:29;20.90;;;14.30;;
8353;SDS011;4656;48.090;11.498;2023-03-01T03:46:31;18.83;;;13.50;;
8353;SDS011;4656;48.090;11.498;2023-03-01T03:48:34;22.35;;;15.05;;
8353;SDS011;4656;48.090;11.498;2023-03-01T03:50:37;20.92;;;14.65;;
8353;SDS011;4656;48.090;11.498;2023-03-01T03:52:40;23.23;;;15.25;;
8353;SDS011;4656;48.090;11.498;2023-03-01T03:54:42;21.50;;;15.40;;
8353;SDS011;4656;48.090;11.498;2023-03-01T03:56:44;22.65;;;14.63;;
8353;SDS011;4656;48.090;11.498;2023-03-01T03:58:47;20.42;;;14.82;;
8353;SDS011;4656;48.090;11.498;2023-03-01T04:00:50;22.73;;;15.20;;
8353;SDS011;4656;48.090;11.498;2023-03-01T04:02:53;20.10;;;14.80;;
8353;SDS011;4656;48.090;11.498;2023-03-01T04:04:56;21.25;;;14.82;;
8353;SDS011;4656;48.090;11.498;2023-03-01T04:06:58;22.15;;;14.35;;
8353;SDS011;4656;48.090;11.498;2023-03-01T04:09:02;20.30;;;13.35;;
8353;SDS011;4656;48.090;11.498;2023-03-01T04:11:04;25.83;;;15.73;;
8353;SDS011;4656;48.090;11.498;2023-03-01T04:13:22;22.38;;;14.90;;
8353;SDS011;4656;48.090;11.498;2023-03-01T04:15:25;21.83;;;14.67;;
8353;SDS011;4656;48.090;11.498;2023-03-01T04:17:28;21.85;;;14.43;;
8353;SDS011;4656;48.090;11.498;2023-03-01T04:19:30;22.90;;;15.02;;
8353;SDS011;4656;48.090;11.498;2023-03-01T04:21:36;22.90;;;15.52;;
8353;SDS011;4656;48.090;11.498;2023-03-01T04:23:38;22.08;;;14.88;;
8353;SDS011;4656;48.090;11.498;2023-03-01T04:25:45;23.17;;;14.57;;
8353;SDS011;4656;48.090;11.498;2023-03-01T04:27:49;20.50;;;14.88;;
8353;SDS011;4656;48.090;11.498;2023-03-01T04:29:52;24.10;;;15.00;;
8353;SDS011;4656;48.090;11.498;2023-03-01T04:31:54;21.55;;;14.38;;
8353;SDS011;4656;48.090;11.498;2023-03-01T04:33:56;20.55;;;14.80;;
8353;SDS011;4656;48.090;11.498;2023-03-01T04:35:58;23.85;;;15.70;;
8353;SDS011;4656;48.090;11.498;2023-03-01T04:38:02;22.02;;;14.98;;
8353;SDS011;4656;48.090;11.498;2023-03-01T04:40:04;22.70;;;15.73;;
8353;SDS011;4656;48.090;11.498;2023-03-01T04:42:14;21.90;;;15.23;;
8353;SDS011;4656;48.090;11.498;2023-03-01T04:44:17;23.10;;;15.85;;
8353;SDS011;4656;48.090;11.498;2023-03-01T04:46:20;24.95;;;16.02;;
8353;SDS011;4656;48.090;11.498;2023-03-01T04:48:28;21.60;;;15.55;;
8353;SDS011;4656;48.090;11.498;2023-03-01T04:50:30;23.65;;;15.90;;
8353;SDS011;4656;48.090;11.498;2023-03-01T04:52:32;25.83;;;16.02;;
8353;SDS011;4656;48.090;11.498;2023-03-01T04:54:34;22.52;;;15.90;;
8353;SDS011;4656;48.090;11.498;2023-03-01T04:56:37;23.05;;;15.70;;
8353;SDS011;4656;48.090;11.498;2023-03-01T04:58:40;24.77;;;15.98;;
8353;SDS011;4656;48.090;11.498;2023-03-01T05:00:43;24.08;;;16.25;;
8353;SDS011;4656;48.090;11.498;2023-03-01T05:02:46;23.98;;;15.20;;
8353;SDS011;4656;48.090;11.498;2023-03-01T05:04:53;23.20;;;15.18;;
8353;SDS011;4656;48.090;11.498;2023-03-01T05:06:57;23.83;;;15.55;;
8353;SDS011;4656;48.090;11.498;2023-03-01T05:08:59;23.98;;;15.98;;
8353;SDS011;4656;48.090;11.498;2023-03-01T05:11:01;21.98;;;15.73;;
8353;SDS011;4656;48.090;11.498;2023-03-01T05:13:04;24.27;;;15.60;;
8353;SDS011;4656;48.090;11.498;2023-03-01T05:15:08;23.55;;;16.35;;
8353;SDS011;4656;48.090;11.498;2023-03-01T05:17:10;24.15;;;15.80;;
8353;SDS011;4656;48.090;11.498;2023-03-01T05:19:12;25.15;;;16.63;;
8353;SDS011;4656;48.090;11.498;2023-03-01T05:21:16;25.77;;;16.52;;
8353;SDS011;4656;48.090;11.498;2023-03-01T05:23:18;22.45;;;15.50;;
8353;SDS011;4656;48.090;11.498;2023-03-01T05:25:20;25.58;;;16.52;;
8353;SDS011;4656;48.090;11.498;2023-03-01T05:27:22;27.27;;;16.15;;
8353;SDS011;4656;48.090;11.498;2023-03-01T05:29:25;25.52;;;15.93;;
8353;SDS011;4656;48.090;11.498;2023-03-01T05:31:29;23.80;;;15.83;;
8353;SDS011;4656;48.090;11.498;2023-03-01T05:33:31;25.67;;;16.38;;
8353;SDS011;4656;48.090;11.498;2023-03-01T05:35:33;23.98;;;15.35;;
8353;SDS011;4656;48.090;11.498;2023-03-01T05:37:35;23.00;;;16.15;;
8353;SDS011;4656;48.090;11.498;2023-03-01T05:39:38;24.45;;;16.23;;
8353;SDS011;4656;48.090;11.498;2023-03-01T05:41:41;23.75;;;15.75;;
8353;SDS011;4656;48.090;11.498;2023-03-01T05:43:44;22.55;;;15.82;;
8353;SDS011;4656;48.090;11.498;2023-03-01T05:45:46;23.17;;;15.50;;
8353;SDS011;4656;48.090;11.498;2023-03-01T05:47:49;22.08;;;15.35;;
8353;SDS011;4656;48.090;11.498;2023-03-01T05:49:52;26.23;;;16.85;;
8353;SDS011;4656;48.090;11.498;2023-03-01T05:51:54;23.10;;;16.00;;
8353;SDS011;4656;48.090;11.498;2023-03-01T05:53:56;22.90;;;15.80;;
8353;SDS011;4656;48.090;11.498;2023-03-01T05:55:58;27.48;;;17.00;;
8353;SDS011;4656;48.090;11.498;2023-03-01T05:58:04;22.20;;;15.48;;
8353;SDS011;4656;48.090;11.498;2023-03-01T06:00:06;23.83;;;15.90;;
8353;SDS011;4656;48.090;11.498;2023-03-01T06:02:09;24.52;;;16.33;;
8353;SDS011;4656;48.090;11.498;2023-03-01T06:04:12;26.20;;;17.05;;
8353;SDS011;4656;48.090;11.498;2023-03-01T06:06:14;26.77;;;17.02;;
8353;SDS011;4656;48.090;11.498;2023-03-01T06:08:17;24.83;;;16.30;;
8353;SDS011;4656;48.090;11.498;2023-03-01T06:10:21;22.70;;;15.35;;
8353;SDS011;4656;48.090;11.498;2023-03-01T06:12:23;25.65;;;16.45;;
8353;SDS011;4656;48.090;11.498;2023-03-01T06:14:26;24.20;;;16.02;;
8353;SDS011;4656;48.090;11.498;2023-03-01T06:16:28;26.13;;;15.45;;
8353;SDS011;4656;48.090;11.498;2023-03-01T06:18:30;23.75;;;15.55;;
8353;SDS011;4656;48.090;11.498;2023-03-01T06:20:33;23.27;;;15.50;;
8353;SDS011;4656;48.090;11.498;2023-03-01T06:22:36;27.15;;;16.58;;
8353;SDS011;4656;48.090;11.498;2023-03-01T06:24:38;23.33;;;15.30;;
8353;SDS011;4656;48.090;11.498;2023-03-01T06:26:41;25.48;;;15.50;;
8353;SDS011;4656;48.090;11.498;2023-03-01T06:28:43;25.67;;;16.23;;
8353;SDS011;4656;48.090;11.498;2023-03-01T06:30:46;26.42;;;16.33;;
8353;SDS011;4656;48.090;11.498;2023-03-01T06:32:48;22.48;;;15.07;;
8353;SDS011;4656;48.090;11.498;2023-03-01T06:34:50;24.80;;;16.15;;
8353;SDS011;4656;48.090;11.498;2023-03-01T06:36:54;25.88;;;15.10;;
8353;SDS011;4656;48.090;11.498;2023-03-01T06:38:56;24.42;;;15.73;;
8353;SDS011;4656;48.090;11.498;2023-03-01T06:40:58;24.35;;;16.13;;
8353;SDS011;4656;48.090;11.498;2023-03-01T06:43:01;27.70;;;16.40;;
8353;SDS011;4656;48.090;11.498;2023-03-01T06:45:04;24.55;;;15.85;;
8353;SDS011;4656;48.090;11.498;2023-03-01T06:47:07;26.15;;;16.48;;
8353;SDS011;4656;48.090;11.498;2023-03-01T06:49:09;24.38;;;15.57;;
8353;SDS011;4656;48.090;11.498;2023-03-01T06:51:12;24.50;;;15.80;;
8353;SDS011;4656;48.090;11.498;2023-03-01T06:53:16;27.88;;;16.25;;
8353;SDS011;4656;48.090;11.498;2023-03-01T06:55:18;27.48;;;17.08;;
8353;SDS011;4656;48.090;11.498;2023-03-01T06:57:20;22.42;;;15.95;;
8353;SDS011;4656;48.090;11.498;2023-03-01T06:59:22;24.42;;;16.35;;
8353;SDS011;4656;48.090;11.498;2023-03-01T07:01:24;24.25;;;15.68;;
8353;SDS011;4656;48.090;11.498;2023-03-01T07:03:27;24.60;;;16.00;;
8353;SDS011;4656;48.090;11.498;2023-03-01T07:05:29;22.90;;;15.63;;
8353;SDS011;4656;48.090;11.498;2023-03-01T07:07:31;23.67;;;15.38;;
8353;SDS011;4656;48.090;11.498;2023-03-01T07:09:35;24.25;;;15.95;;
8353;SDS011;4656;48.090;11.498;2023-03-01T07:11:37;24.33;;;15.98;;
8353;SDS011;4656;48.090;11.498;2023-03-01T07:13:39;24.45;;;16.17;;
8353;SDS011;4656;48.090;11.498;2023-03-01T07:15:42;24.60;;;15.60;;
8353;SDS011;4656;48.090;11.498;2023-03-01T07:17:45;26.63;;;17.05;;
8353;SDS011;4656;48.090;11.498;2023-03-01T07:19:49;26.02;;;15.93;;
8353;SDS011;4656;48.090;11.498;2023-03-01T07:21:52;25.30;;;16.13;;
8353;SDS011;4656;48.090;11.498;2023-03-01T07:23:55;23.95;;;16.20;;
8353;SDS011;4656;48.090;11.498;2023-03-01T07:25:59;26.23;;;15.90;;
8353;SDS011;4656;48.090;11.498;2023-03-01T07:28:02;24.97;;;15.73;;
8353;SDS011;4656;48.090;11.498;2023-03-01T07:30:05;25.48;;;16.58;;
8353;SDS011;4656;48.090;11.498;2023-03-01T07:32:07;24.17;;;16.35;;
8353;SDS011;4656;48.090;11.498;2023-03-01T07:34:09;25.10;;;16.17;;
8353;SDS011;4656;48.090;11.498;2023-03-01T07:36:11;24.98;;;15.85;;
8353;SDS011;4656;48.090;11.498;2023-03-01T07:38:13;24.98;;;16.30;;
8353;SDS011;4656;48.090;11.498;2023-03-01T07:40:16;25.33;;;16.30;;
8353;SDS011;4656;48.090;11.498;2023-03-01T07:42:19;25.75;;;16.30;;
8353;SDS011;4656;48.090;11.498;2023-03-01T07:44:21;24.33;;;15.88;;
8353;SDS011;4656;48.090;11.498;2023-03-01T07:46:24;23.97;;;16.00;;
8353;SDS011;4656;48.090;11.498;2023-03-01T07:48:26;22.02;;;15.07;;
8353;SDS011;4656;48.090;11.498;2023-03-01T07:50:28;23.85;;;15.23;;
8353;SDS011;4656;48.090;11.498;2023-03-01T07:52:30;25.55;;;15.65;;
8353;SDS011;4656;48.090;11.498;2023-03-01T07:54:33;23.27;;;15.67;;
8353;SDS011;4656;48.090;11.498;2023-03-01T07:56:35;23.92;;;15.70;;
8353;SDS011;4656;48.090;11.498;2023-03-01T07:58:39;21.95;;;15.13;;
8353;SDS011;4656;48.090;11.498;2023-03-01T08:00:41;24.38;;;15.52;;
8353;SDS011;4656;48.090;11.498;2023-03-01T08:02:43;22.03;;;15.33;;
8353;SDS011;4656;48.090;11.498;2023-03-01T08:04:45;23.85;;;15.68;;
8353;SDS011;4656;48.090;11.498;2023-03-01T08:06:47;23.75;;;15.35;;
8353;SDS011;4656;48.090;11.498;2023-03-01T08:08:50;21.88;;;14.93;;
8353;SDS011;4656;48.090;11.498;2023-03-01T08:10:52;23.23;;;14.80;;
8353;SDS011;4656;48.090;11.498;2023-03-01T08:12:54;23.45;;;15.85;;
8353;SDS011;4656;48.090;11.498;2023-03-01T08:14:58;26.80;;;16.25;;
8353;SDS011;4656;48.090;11.498;2023-03-01T08:17:00;23.15;;;15.43;;
8353;SDS011;4656;48.090;11.498;2023-03-01T08:19:03;22.00;;;14.68;;
8353;SDS011;4656;48.090;11.498;2023-03-01T08:21:06;22.47;;;15.00;;
8353;SDS011;4656;48.090;11.498;2023-03-01T08:23:08;25.42;;;15.73;;
8353;SDS011;4656;48.090;11.498;2023-03-01T08:25:10;21.98;;;15.05;;
8353;SDS011;4656;48.090;11.498;2023-03-01T08:27:14;22.97;;;15.43;;
8353;SDS011;4656;48.090;11.498;2023-03-01T08:29:16;22.50;;;15.50;;
8353;SDS011;4656;48.090;11.498;2023-03-01T08:31:21;21.73;;;14.48;;
8353;SDS011;4656;48.090;11.498;2023-03-01T08:33:23;24.55;;;14.45;;
8353;SDS011;4656;48.090;11.498;2023-03-01T08:35:26;23.33;;;15.27;;
8353;SDS011;4656;48.090;11.498;2023-03-01T08:37:28;23.13;;;15.48;;
8353;SDS011;4656;48.090;11.498;2023-03-01T08:39:32;27.33;;;16.13;;
8353;SDS011;4656;48.090;11.498;2023-03-01T08:41:35;24.08;;;15.43;;
8353;SDS011;4656;48.090;11.498;2023-03-01T08:43:37;22.75;;;15.60;;
8353;SDS011;4656;48.090;11.498;2023-03-01T08:45:39;27.70;;;15.25;;
8353;SDS011;4656;48.090;11.498;2023-03-01T08:47:42;22.98;;;15.52;;
8353;SDS011;4656;48.090;11.498;2023-03-01T08:49:45;22.55;;;15.40;;
8353;SDS011;4656;48.090;11.498;2023-03-01T08:51:47;23.92;;;15.65;;
8353;SDS011;4656;48.090;11.498;2023-03-01T08:53:49;23.80;;;14.98;;
8353;SDS011;4656;48.090;11.498;2023-03-01T08:55:51;22.52;;;15.63;;
8353;SDS011;4656;48.090;11.498;2023-03-01T08:57:54;24.92;;;15.32;;
8353;SDS011;4656;48.090;11.498;2023-03-01T08:59:58;24.52;;;16.30;;
8353;SDS011;4656;48.090;11.498;2023-03-01T09:02:01;25.00;;;15.60;;
8353;SDS011;4656;48.090;11.498;2023-03-01T09:04:05;21.90;;;14.68;;
8353;SDS011;4656;48.090;11.498;2023-03-01T09:06:07;22.83;;;15.50;;
8353;SDS011;4656;48.090;11.498;2023-03-01T09:08:09;25.15;;;15.35;;
8353;SDS011;4656;48.090;11.498;2023-03-01T09:10:11;22.95;;;16.13;;
8353;SDS011;4656;48.090;11.498;2023-03-01T09:12:14;24.90;;;16.52;;
8353;SDS011;4656;48.090;11.498;2023-03-01T09:14:16;26.50;;;17.05;;
8353;SDS011;4656;48.090;11.498;2023-03-01T09:16:19;23.58;;;15.43;;
8353;SDS011;4656;48.090;11.498;2023-03-01T09:18:21;26.20;;;16.43;;
8353;SDS011;4656;48.090;11.498;2023-03-01T09:20:25;27.23;;;15.93;;
8353;SDS011;4656;48.090;11.498;2023-03-01T09:22:27;22.67;;;15.65;;
8353;SDS011;4656;48.090;11.498;2023-03-01T09:24:29;23.67;;;15.85;;
8353;SDS011;4656;48.090;11.498;2023-03-01T09:26:32;24.73;;;16.58;;
8353;SDS011;4656;48.090;11.498;2023-03-01T09:28:34;22.17;;;15.93;;
8353;SDS011;4656;48.090;11.498;2023-03-01T09:30:36;25.45;;;16.73;;
8353;SDS011;4656;48.090;11.498;2023-03-01T09:32:38;23.75;;;16.13;;
8353;SDS011;4656;48.090;11.498;2023-03-01T09:34:42;26.38;;;16.48;;
8353;SDS011;4656;48.090;11.498;2023-03-01T09:37:05;24.27;;;15.90;;
8353;SDS011;4656;48.090;11.498;2023-03-01T09:39:08;29.15;;;16.98;;
8353;SDS011;4656;48.090;11.498;2023-03-01T09:41:10;29.07;;;17.27;;
8353;SDS011;4656;48.090;11.498;2023-03-01T09:43:15;25.77;;;16.40;;
8353;SDS011;4656;48.090;11.498;2023-03-01T09:45:24;26.77;;;16.88;;
8353;SDS011;4656;48.090;11.498;2023-03-01T09:47:28;24.80;;;15.52;;
8353;SDS011;4656;48.090;11.498;2023-03-01T09:49:31;26.10;;;17.00;;
8353;SDS011;4656;48.090;11.498;2023-03-01T09:51:35;27.58;;;17.85;;
8353;SDS011;4656;48.090;11.498;2023-03-01T09:53:39;26.85;;;17.45;;
8353;SDS011;4656;48.090;11.498;2023-03-01T09:55:43;24.50;;;16.17;;
8353;SDS011;4656;48.090;11.498;2023-03-01T09:57:47;29.35;;;17.08;;
8353;SDS011;4656;48.090;11.498;2023-03-01T09:59:57;26.45;;;17.35;;
8353;SDS011;4656;48.090;11.498;2023-03-01T10:02:02;28.20;;;17.35;;
8353;SDS011;4656;48.090;11.498;2023-03-01T10:06:29;27.55;;;18.02;;
8353;SDS011;4656;48.090;11.498;2023-03-01T10:08:33;28.08;;;17.20;;
8353;SDS011;4656;48.090;11.498;2023-03-01T10:10:42;26.77;;;17.63;;
8353;SDS011;4656;48.090;11.498;2023-03-01T10:12:45;27.20;;;17.65;;
8353;SDS011;4656;48.090;11.498;2023-03-01T10:14:50;27.30;;;17.60;;
8353;SDS011;4656;48.090;11.498;2023-03-01T10:16:55;24.60;;;16.60;;
8353;SDS011;4656;48.090;11.498;2023-03-01T10:19:03;26.98;;;18.13;;
8353;SDS011;4656;48.090;11.498;2023-03-01T10:21:09;27.20;;;17.45;;
8353;SDS011;4656;48.090;11.498;2023-03-01T10:23:15;30.65;;;17.75;;
8353;SDS011;4656;48.090;11.498;2023-03-01T10:25:22;24.23;;;16.25;;
8353;SDS011;4656;48.090;11.498;2023-03-01T10:27:29;28.92;;;18.35;;
8353;SDS011;4656;48.090;11.498;2023-03-01T10:29:37;27.40;;;17.77;;
8353;SDS011;4656;48.090;11.498;2023-03-01T10:31:42;25.85;;;16.75;;
8353;SDS011;4656;48.090;11.498;2023-03-01T10:33:44;25.85;;;16.48;;
8353;SDS011;4656;48.090;11.498;2023-03-01T10:35:49;27.40;;;17.50;;
8353;SDS011;4656;48.090;11.498;2023-03-01T10:37:59;24.50;;;16.45;;
8353;SDS011;4656;48.090;11.498;2023-03-01T10:40:06;25.70;;;17.57;;
8353;SDS011;4656;48.090;11.498;2023-03-01T10:42:18;26.48;;;17.33;;
8353;SDS011;4656;48.090;11.498;2023-03-01T10:44:35;25.37;;;16.30;;
8353;SDS011;4656;48.090;11.498;2023-03-01T10:46:38;23.88;;;16.02;;
8353;SDS011;4656;48.090;11.498;2023-03-01T10:48:40;28.50;;;16.90;;
8353;SDS011;4656;48.090;11.498;2023-03-01T10:50:43;23.48;;;16.23;;
8353;SDS011;4656;48.090;11.498;2023-03-01T10:52:55;24.42;;;16.98;;
8353;SDS011;4656;48.090;11.498;2023-03-01T10:54:59;25.58;;;17.25;;
8353;SDS011;4656;48.090;11.498;2023-03-01T10:57:02;24.47;;;15.70;;
8353;SDS011;4656;48.090;11.498;2023-03-01T10:59:05;26.05;;;16.45;;
8353;SDS011;4656;48.090;11.498;2023-03-01T11:01:27;25.05;;;17.85;;
8353;SDS011;4656;48.090;11.498;2023-03-01T11:03:32;25.52;;;17.95;;
8353;SDS011;4656;48.090;11.498;2023-03-01T11:05:35;27.60;;;17.58;;
8353;SDS011;4656;48.090;11.498;2023-03-01T11:07:46;25.80;;;17.23;;
8353;SDS011;4656;48.090;11.498;2023-03-01T11:09:48;22.40;;;16.33;;
8353;SDS011;4656;48.090;11.498;2023-03-01T11:11:51;20.73;;;15.18;;
8353;SDS011;4656;48.090;11.498;2023-03-01T11:13:55;22.55;;;15.73;;
8353;SDS011;4656;48.090;11.498;2023-03-01T11:15:58;19.08;;;14.10;;
8353;SDS011;4656;48.090;11.498;2023-03-01T11:18:02;20.15;;;14.07;;
8353;SDS011;4656;48.090;11.498;2023-03-01T11:20:06;19.00;;;13.98;;
8353;SDS011;4656;48.090;11.498;2023-03-01T11:22:12;18.55;;;13.77;;
8353;SDS011;4656;48.090;11.498;2023-03-01T11:24:15;23.05;;;15.52;;
8353;SDS011;4656;48.090;11.498;2023-03-01T11:26:18;21.02;;;16.27;;
8353;SDS011;4656;48.090;11.498;2023-03-01T11:28:21;19.63;;;14.25;;
8353;SDS011;4656;48.090;11.498;2023-03-01T11:30:26;21.23;;;15.10;;
8353;SDS011;4656;48.090;11.498;2023-03-01T11:32:31;19.80;;;14.55;;
8353;SDS011;4656;48.090;11.498;2023-03-01T11:34:42;20.70;;;14.20;;
8353;SDS011;4656;48.090;11.498;2023-03-01T11:36:49;21.63;;;15.02;;
8353;SDS011;4656;48.090;11.498;2023-03-01T11:38:53;19.85;;;14.70;;
8353;SDS011;4656;48.090;11.498;2023-03-01T11:40:57;19.00;;;14.85;;
8353;SDS011;4656;48.090;11.498;2023-03-01T11:43:05;20.80;;;14.93;;
8353;SDS011;4656;48.090;11.498;2023-03-01T11:45:10;21.48;;;14.68;;
8353;SDS011;4656;48.090;11.498;2023-03-01T11:47:19;20.50;;;14.32;;
8353;SDS011;4656;48.090;11.498;2023-03-01T11:49:30;20.60;;;14.85;;
8353;SDS011;4656;48.090;11.498;2023-03-01T11:51:41;20.85;;;14.40;;
8353;SDS011;4656;48.090;11.498;2023-03-01T11:54:05;19.05;;;14.30;;
8353;SDS011;4656;48.090;11.498;2023-03-01T11:56:15;19.40;;;14.38;;
8353;SDS011;4656;48.090;11.498;2023-03-01T11:58:26;18.65;;;14.65;;
8353;SDS011;4656;48.090;11.498;2023-03-01T12:00:34;17.60;;;13.57;;
8353;SDS011;4656;48.090;11.498;2023-03-01T12:05:01;17.05;;;13.63;;
8353;SDS011;4656;48.090;11.498;2023-03-01T12:07:07;18.52;;;14.00;;
8353;SDS011;4656;48.090;11.498;2023-03-01T12:09:17;19.80;;;14.70;;
8353;SDS011;4656;48.090;11.498;2023-03-01T12:11:23;18.83;;;14.65;;
8353;SDS011;4656;48.090;11.498;2023-03-01T12:13:40;19.85;;;14.88;;
8353;SDS011;4656;48.090;11.498;2023-03-01T12:15:51;20.23;;;14.25;;
8353;SDS011;4656;48.090;11.498;2023-03-01T12:18:02;19.70;;;14.73;;